Time;durP1;ratioP1;P1;durP2;ratioP2;P2;SDS_P1;SDS_P2;PMS_P1;PMS_P2;Temp;Humidity;BMP_temperature;BMP_pressure;BME280_temperature;BME280_humidity;BME280_pressure;Samples;Min_cycle;Max_cycle;Signal;HPM_P1;HPM_P2
2023/06/04 00:00:06;;;;;;;13.00;3.40;;;11.30;99.90;;;;;;4941018;28;218437;-72
2023/06/04 00:02:33;;;;;;;10.18;3.08;;;11.30;99.90;;;;;;4997459;28;20551;-72
2023/06/04 00:04:59;;;;;;;10.45;3.30;;;11.20;99.90;;;;;;4968994;28;217900;-72
2023/06/04 00:07:25;;;;;;;12.73;3.40;;;11.20;99.90;;;;;;5000852;28;20045;-72
2023/06/04 00:09:53;;;;;;;10.43;3.30;;;11.10;99.90;;;;;;4961098;28;246651;-72
2023/06/04 00:12:19;;;;;;;11.27;3.20;;;11.10;99.90;;;;;;4983627;28;20050;-72
2023/06/04 00:14:45;;;;;;;10.27;3.53;;;11.10;99.90;;;;;;4944137;28;220349;-72
2023/06/04 00:17:11;;;;;;;12.48;3.55;;;11.10;99.90;;;;;;4991504;28;20054;-73
2023/06/04 00:19:40;;;;;;;14.32;3.70;;;11.10;99.90;;;;;;4940769;28;212463;-72
2023/06/04 00:22:06;;;;;;;12.65;3.90;;;11.00;99.90;;;;;;4988595;28;20065;-72
2023/06/04 00:24:34;;;;;;;13.40;3.60;;;11.00;99.90;;;;;;4937753;28;215686;-73
2023/06/04 00:27:01;;;;;;;11.52;3.83;;;11.00;99.90;;;;;;5002448;28;20423;-73
2023/06/04 00:29:27;;;;;;;11.55;3.47;;;10.90;99.90;;;;;;4965564;28;217886;-73
2023/06/04 00:31:53;;;;;;;12.95;3.83;;;10.90;99.90;;;;;;5007401;28;20062;-72
2023/06/04 00:34:19;;;;;;;10.00;3.40;;;10.90;99.90;;;;;;4987126;28;90479;-73
2023/06/04 00:36:45;;;;;;;12.77;3.60;;;10.90;99.90;;;;;;5013693;28;20057;-72
2023/06/04 00:39:11;;;;;;;12.88;3.50;;;10.80;99.90;;;;;;4949524;28;215054;-72
2023/06/04 00:41:37;;;;;;;12.93;3.75;;;10.80;99.90;;;;;;5004726;28;20053;-71
2023/06/04 00:44:06;;;;;;;13.23;3.40;;;10.80;99.90;;;;;;4957630;28;216054;-72
2023/06/04 00:46:35;;;;;;;13.23;3.28;;;10.70;99.90;;;;;;4996513;28;20053;-72
2023/06/04 00:49:01;;;;;;;13.20;3.70;;;10.70;99.90;;;;;;4952718;28;210976;-72
2023/06/04 00:51:30;;;;;;;11.75;3.92;;;10.70;99.90;;;;;;5009882;28;20057;-73
2023/06/04 00:53:56;;;;;;;14.52;3.88;;;10.70;99.90;;;;;;4955943;28;213099;-72
2023/06/04 00:56:22;;;;;;;15.40;4.10;;;10.70;99.90;;;;;;5013443;28;20069;-72
2023/06/04 00:58:49;;;;;;;12.50;4.32;;;10.60;99.90;;;;;;4937586;28;209549;-72
2023/06/04 01:01:18;;;;;;;11.45;3.90;;;10.60;99.90;;;;;;5000312;28;20070;-72
2023/06/04 01:03:49;;;;;;;13.45;4.28;;;10.60;99.90;;;;;;4952403;28;253757;-72
2023/06/04 01:06:24;;;;;;;14.65;4.60;;;10.50;99.90;;;;;;5011749;28;20046;-72
2023/06/04 01:08:54;;;;;;;12.13;4.53;;;10.50;99.90;;;;;;4968121;28;221897;-72
2023/06/04 01:11:37;;;;;;;14.82;3.97;;;10.50;99.90;;;;;;5010912;28;20066;-72
2023/06/04 01:14:05;;;;;;;13.57;4.10;;;10.40;99.90;;;;;;4940364;28;216024;-72
2023/06/04 01:16:40;;;;;;;15.25;4.75;;;10.40;99.90;;;;;;4993846;28;20054;-72
2023/06/04 01:19:47;;;;;;;14.60;4.80;;;10.40;99.90;;;;;;4957021;28;195555;-72
2023/06/04 01:22:25;;;;;;;16.23;4.53;;;10.40;99.90;;;;;;4985030;28;20059;-73
2023/06/04 01:24:55;;;;;;;15.40;4.40;;;10.30;99.90;;;;;;4961999;28;104192;-73
2023/06/04 01:27:22;;;;;;;13.60;4.47;;;10.30;99.90;;;;;;4983769;28;20050;-73
2023/06/04 01:29:49;;;;;;;14.88;4.95;;;10.30;99.90;;;;;;4963438;28;207017;-73
2023/06/04 01:32:16;;;;;;;13.57;4.93;;;10.40;99.90;;;;;;5007067;28;20594;-72
2023/06/04 01:34:46;;;;;;;12.95;4.45;;;10.30;99.90;;;;;;4963440;28;208767;-73
2023/06/04 01:37:13;;;;;;;13.95;4.72;;;10.30;99.90;;;;;;5005809;28;20050;-72
2023/06/04 01:39:41;;;;;;;13.80;4.68;;;10.30;99.90;;;;;;4966357;28;211830;-72
2023/06/04 01:42:08;;;;;;;12.13;4.53;;;10.20;99.90;;;;;;4987211;28;20516;-71
2023/06/04 01:44:34;;;;;;;16.55;4.90;;;10.20;99.90;;;;;;4970274;28;211857;-71
2023/06/04 01:47:01;;;;;;;12.77;4.75;;;10.20;99.90;;;;;;5008311;28;20054;-73
2023/06/04 01:49:27;;;;;;;11.77;4.28;;;10.10;99.90;;;;;;4976641;28;211541;-72
2023/06/04 01:51:53;;;;;;;15.73;4.97;;;10.10;99.90;;;;;;5011820;28;20510;-73
2023/06/04 01:54:19;;;;;;;12.07;4.55;;;10.10;99.90;;;;;;4962280;28;222208;-72
2023/06/04 01:56:46;;;;;;;12.95;4.93;;;10.00;99.90;;;;;;5009640;28;20995;-73
2023/06/04 01:59:12;;;;;;;11.32;4.13;;;10.00;99.90;;;;;;4934970;28;208214;-73
2023/06/04 02:01:38;;;;;;;13.65;4.85;;;10.00;99.90;;;;;;4996062;28;20042;-73
2023/06/04 02:04:04;;;;;;;15.85;5.55;;;10.00;99.90;;;;;;4938568;28;216229;-72
2023/06/04 02:06:31;;;;;;;16.65;5.30;;;10.00;99.90;;;;;;4997846;28;20053;-72
2023/06/04 02:08:57;;;;;;;14.43;5.10;;;9.90;99.90;;;;;;4956868;28;203567;-72
2023/06/04 02:11:23;;;;;;;16.90;5.57;;;9.90;99.90;;;;;;5020597;28;20049;-71
2023/06/04 02:13:49;;;;;;;12.80;5.10;;;9.90;99.90;;;;;;4964254;28;208691;-72
2023/06/04 02:16:15;;;;;;;12.20;5.30;;;9.90;99.90;;;;;;5004467;28;20083;-72
2023/06/04 02:18:41;;;;;;;17.15;5.35;;;9.80;99.90;;;;;;4944402;28;213770;-72
2023/06/04 02:21:07;;;;;;;17.20;5.72;;;9.80;99.90;;;;;;4992245;28;20054;-72
2023/06/04 02:23:34;;;;;;;20.83;6.35;;;9.80;99.90;;;;;;4940144;28;205775;-73
2023/06/04 02:26:00;;;;;;;16.17;6.45;;;9.80;99.90;;;;;;5001777;28;20069;-72
2023/06/04 02:28:26;;;;;;;12.75;4.95;;;9.70;99.90;;;;;;4980240;28;218883;-72
2023/06/04 02:30:53;;;;;;;13.18;5.07;;;9.70;99.90;;;;;;5011799;28;20065;-71
2023/06/04 02:33:20;;;;;;;15.25;5.70;;;9.70;99.90;;;;;;4981814;28;214454;-72
2023/06/04 02:35:46;;;;;;;15.23;5.07;;;9.70;99.90;;;;;;5011431;28;20401;-72
2023/06/04 02:38:12;;;;;;;16.38;5.38;;;9.70;99.90;;;;;;4923965;28;223724;-71
2023/06/04 02:40:39;;;;;;;16.13;5.35;;;9.70;99.90;;;;;;5021603;28;20046;-72
2023/06/04 02:43:05;;;;;;;17.85;6.18;;;9.60;99.90;;;;;;4955545;28;210880;-70
2023/06/04 02:45:32;;;;;;;17.15;6.07;;;9.60;99.90;;;;;;4983331;28;227090;-71
2023/06/04 02:47:58;;;;;;;15.48;5.93;;;9.60;99.90;;;;;;4985579;28;20634;-72
2023/06/04 02:50:24;;;;;;;17.58;5.75;;;9.60;99.90;;;;;;4957900;28;213044;-72
2023/06/04 02:52:50;;;;;;;22.63;7.10;;;9.60;99.90;;;;;;4984543;28;20054;-72
2023/06/04 02:55:16;;;;;;;18.02;6.80;;;9.50;99.90;;;;;;4945604;28;210014;-71
2023/06/04 02:57:43;;;;;;;17.90;6.18;;;9.50;99.90;;;;;;4998953;28;20518;-72
2023/06/04 03:00:14;;;;;;;16.85;5.82;;;9.50;99.90;;;;;;4959162;28;214090;-72
2023/06/04 03:02:48;;;;;;;22.08;7.43;;;9.50;99.90;;;;;;5009015;28;20554;-72
2023/06/04 03:05:17;;;;;;;17.90;6.72;;;9.50;99.90;;;;;;4958168;28;210458;-73
2023/06/04 03:07:45;;;;;;;16.50;6.20;;;9.40;99.90;;;;;;5000572;28;21020;-71
2023/06/04 03:10:12;;;;;;;16.10;6.25;;;9.50;99.90;;;;;;4951598;28;212867;-71
2023/06/04 03:12:39;;;;;;;16.85;5.72;;;9.40;99.90;;;;;;4981680;28;20062;-71
2023/06/04 03:15:06;;;;;;;14.88;6.85;;;9.40;99.90;;;;;;4959538;28;207525;-72
2023/06/04 03:17:32;;;;;;;16.98;6.50;;;9.40;99.90;;;;;;5002086;28;20057;-71
2023/06/04 03:19:58;;;;;;;18.02;7.07;;;9.40;99.90;;;;;;4970755;28;215276;-72
2023/06/04 03:22:25;;;;;;;17.83;7.22;;;9.40;99.90;;;;;;4999965;28;20058;-72
2023/06/04 03:24:52;;;;;;;16.15;7.22;;;9.40;99.90;;;;;;4967914;28;208655;-72
2023/06/04 03:27:19;;;;;;;20.88;8.10;;;9.30;99.90;;;;;;5003449;28;20077;-72
2023/06/04 03:29:45;;;;;;;18.00;7.68;;;9.40;99.90;;;;;;4941448;28;211977;-70
2023/06/04 03:32:12;;;;;;;19.98;7.93;;;9.30;99.90;;;;;;4982357;28;20064;-71
2023/06/04 03:34:38;;;;;;;18.10;8.00;;;9.30;99.90;;;;;;4959411;28;221262;-72
2023/06/04 03:37:05;;;;;;;17.17;7.85;;;9.30;99.90;;;;;;5006954;28;20052;-72
2023/06/04 03:39:31;;;;;;;15.38;7.43;;;9.30;99.90;;;;;;4946438;28;211570;-71
2023/06/04 03:41:57;;;;;;;16.92;7.70;;;9.30;99.90;;;;;;4998958;28;20050;-72
2023/06/04 03:44:23;;;;;;;13.60;7.15;;;9.30;99.90;;;;;;4958845;28;207805;-71
2023/06/04 03:46:49;;;;;;;17.13;7.45;;;9.30;99.90;;;;;;4991109;28;20060;-72
2023/06/04 03:49:17;;;;;;;18.73;7.40;;;9.30;99.90;;;;;;4956414;28;213498;-72
2023/06/04 03:51:43;;;;;;;18.33;7.50;;;9.40;99.90;;;;;;5013665;28;20053;-72
2023/06/04 03:54:09;;;;;;;16.00;7.43;;;9.40;99.90;;;;;;4945885;28;225385;-72
2023/06/04 03:56:36;;;;;;;13.90;6.32;;;9.40;99.90;;;;;;4978497;28;20054;-71
2023/06/04 03:59:02;;;;;;;14.80;6.88;;;9.50;99.90;;;;;;4921928;28;211902;-72
2023/06/04 04:01:28;;;;;;;19.88;7.45;;;9.50;99.90;;;;;;4995993;28;20544;-71
2023/06/04 04:03:54;;;;;;;17.55;8.30;;;9.50;99.90;;;;;;4960897;28;217613;-72
2023/06/04 04:06:21;;;;;;;15.15;6.30;;;9.60;99.90;;;;;;5005672;28;20521;-72
2023/06/04 04:08:48;;;;;;;20.90;7.25;;;9.70;99.90;;;;;;4948532;28;210307;-71
2023/06/04 04:11:16;;;;;;;19.88;7.82;;;9.70;99.90;;;;;;4991165;28;20534;-72
2023/06/04 04:13:44;;;;;;;21.50;7.47;;;9.70;99.90;;;;;;4933728;28;214537;-72
2023/06/04 04:16:10;;;;;;;18.33;9.10;;;9.80;99.90;;;;;;5010452;28;20054;-72
2023/06/04 04:18:37;;;;;;;18.73;8.05;;;9.90;99.90;;;;;;4949366;28;220443;-71
2023/06/04 04:21:04;;;;;;;22.58;8.82;;;9.90;99.90;;;;;;5022739;28;20414;-71
2023/06/04 04:23:33;;;;;;;15.00;7.50;;;10.00;99.90;;;;;;4940527;28;215763;-72
2023/06/04 04:25:59;;;;;;;23.67;9.18;;;10.00;99.90;;;;;;4991563;28;20061;-73
2023/06/04 04:28:28;;;;;;;17.27;8.73;;;10.10;99.90;;;;;;4926660;28;209205;-70
2023/06/04 04:30:59;;;;;;;18.80;8.85;;;10.20;99.90;;;;;;4990781;28;20413;-71
2023/06/04 04:33:25;;;;;;;20.23;8.25;;;10.20;99.90;;;;;;4925872;28;227755;-70
2023/06/04 04:35:56;;;;;;;20.33;8.98;;;10.30;99.90;;;;;;5006952;28;20419;-73
2023/06/04 04:38:23;;;;;;;28.10;9.98;;;10.30;99.90;;;;;;4942272;28;220290;-72
2023/06/04 04:40:52;;;;;;;24.98;10.13;;;10.40;99.90;;;;;;4995766;28;20068;-70
2023/06/04 04:43:31;;;;;;;23.80;10.10;;;10.50;99.90;;;;;;4941639;28;210251;-71
2023/06/04 04:45:58;;;;;;;25.20;9.80;;;10.60;99.90;;;;;;4993140;28;20049;-71
2023/06/04 04:48:25;;;;;;;21.75;10.13;;;10.60;99.90;;;;;;4952818;28;209612;-71
2023/06/04 04:50:51;;;;;;;24.45;9.50;;;10.80;99.90;;;;;;5004474;28;20065;-70
2023/06/04 04:53:17;;;;;;;23.58;10.25;;;10.80;99.90;;;;;;4928438;28;214303;-71
2023/06/04 04:55:43;;;;;;;24.45;10.40;;;10.90;99.90;;;;;;5026624;28;20439;-71
2023/06/04 04:58:09;;;;;;;29.42;10.82;;;11.00;99.90;;;;;;4956268;28;214702;-72
2023/06/04 05:00:35;;;;;;;20.83;9.23;;;11.10;99.90;;;;;;5008162;28;248200;-72
2023/06/04 05:03:02;;;;;;;23.85;9.90;;;11.10;99.90;;;;;;4999622;28;213282;-71
2023/06/04 05:05:28;;;;;;;22.30;8.50;;;11.20;99.90;;;;;;4978800;28;99917;-72
2023/06/04 05:07:54;;;;;;;21.90;8.65;;;11.30;99.90;;;;;;5000771;28;20085;-72
2023/06/04 05:10:20;;;;;;;22.83;9.07;;;11.40;99.90;;;;;;4973630;28;215172;-73
2023/06/04 05:12:53;;;;;;;19.77;7.82;;;11.50;99.90;;;;;;5004985;28;20558;-72
2023/06/04 05:15:20;;;;;;;20.42;7.78;;;11.60;99.90;;;;;;4929072;28;211056;-71
2023/06/04 05:17:46;;;;;;;18.83;7.40;;;11.80;99.90;;;;;;4987526;28;20057;-72
2023/06/04 05:20:14;;;;;;;19.63;7.50;;;11.90;99.90;;;;;;4954120;28;216682;-72
2023/06/04 05:22:40;;;;;;;20.55;7.13;;;12.00;99.90;;;;;;4989352;28;20065;-72
2023/06/04 05:25:08;;;;;;;22.48;6.72;;;12.10;99.90;;;;;;4971855;28;242260;-72
2023/06/04 05:27:35;;;;;;;19.42;6.60;;;12.20;99.90;;;;;;5008747;28;20062;-72
2023/06/04 05:30:02;;;;;;;18.45;6.88;;;12.40;99.90;;;;;;4964434;28;209696;-72
2023/06/04 05:32:29;;;;;;;18.33;6.38;;;12.50;99.90;;;;;;5007083;28;20497;-72
2023/06/04 05:34:58;;;;;;;16.42;5.95;;;12.60;99.90;;;;;;4964686;28;227064;-71
2023/06/04 05:37:28;;;;;;;14.77;5.55;;;12.70;99.90;;;;;;4995521;28;20053;-72
2023/06/04 05:39:56;;;;;;;15.05;5.32;;;12.80;99.90;;;;;;4947174;28;218071;-72
2023/06/04 05:42:23;;;;;;;17.83;5.95;;;13.00;99.90;;;;;;4985088;28;20050;-72
2023/06/04 05:44:50;;;;;;;17.20;5.47;;;13.10;99.90;;;;;;4948049;28;233099;-72
2023/06/04 05:47:16;;;;;;;12.70;4.85;;;13.30;99.90;;;;;;4981257;28;20073;-71
2023/06/04 05:49:43;;;;;;;16.48;5.35;;;13.50;99.90;;;;;;4948892;28;207623;-72
2023/06/04 05:52:09;;;;;;;15.07;4.80;;;13.70;99.90;;;;;;4989050;28;20602;-72
2023/06/04 05:54:36;;;;;;;17.05;5.30;;;13.90;99.90;;;;;;4959635;28;216480;-73
2023/06/04 05:57:03;;;;;;;14.85;4.32;;;14.10;99.90;;;;;;4991935;28;20066;-72
2023/06/04 05:59:30;;;;;;;15.82;4.50;;;14.30;99.90;;;;;;4946368;28;200764;-72
2023/06/04 06:01:57;;;;;;;13.20;3.92;;;14.40;99.90;;;;;;5001494;28;20057;-72
2023/06/04 06:04:23;;;;;;;16.45;4.45;;;14.50;99.90;;;;;;4946258;28;212888;-71
2023/06/04 06:06:49;;;;;;;15.68;4.88;;;14.70;99.90;;;;;;5023695;28;20426;-72
2023/06/04 06:09:18;;;;;;;15.13;4.40;;;14.80;99.90;;;;;;4969745;28;217546;-72
2023/06/04 06:11:45;;;;;;;15.00;4.00;;;15.00;99.90;;;;;;5011181;28;20065;-71
2023/06/04 06:14:12;;;;;;;14.73;4.57;;;15.10;99.90;;;;;;4962776;28;219855;-71
2023/06/04 06:16:38;;;;;;;14.32;4.15;;;15.30;99.90;;;;;;5008757;28;20058;-72
2023/06/04 06:19:04;;;;;;;15.80;3.90;;;15.50;99.90;;;;;;4966893;28;183145;-71
2023/06/04 06:21:31;;;;;;;16.73;3.65;;;15.60;99.90;;;;;;4998328;28;20057;-70
2023/06/04 06:23:57;;;;;;;16.27;3.70;;;15.70;99.90;;;;;;4947297;28;229111;-71
2023/06/04 06:26:24;;;;;;;13.48;3.40;;;15.90;99.90;;;;;;5002894;28;20058;-71
2023/06/04 06:28:51;;;;;;;11.20;3.20;;;16.00;99.90;;;;;;4945869;28;226936;-71
2023/06/04 06:31:17;;;;;;;11.38;3.10;;;16.20;99.90;;;;;;4994246;28;20061;-72
2023/06/04 06:33:43;;;;;;;12.00;3.22;;;16.40;99.90;;;;;;4940855;28;208616;-72
2023/06/04 06:36:13;;;;;;;13.35;3.50;;;16.50;99.90;;;;;;5001727;28;20042;-71
2023/06/04 06:38:40;;;;;;;11.52;2.80;;;16.70;99.90;;;;;;4932009;28;208360;-72
2023/06/04 06:41:07;;;;;;;14.05;3.28;;;16.90;99.90;;;;;;5001591;28;20136;-72
2023/06/04 06:43:33;;;;;;;11.93;3.10;;;17.00;99.90;;;;;;4936263;28;218675;-72
2023/06/04 06:46:00;;;;;;;12.90;3.20;;;17.20;99.90;;;;;;4999752;28;20050;-71
2023/06/04 06:48:26;;;;;;;16.08;3.67;;;17.20;99.90;;;;;;4944400;28;212138;-71
2023/06/04 06:50:52;;;;;;;12.55;3.30;;;17.30;99.90;;;;;;4998729;28;20499;-71
2023/06/04 06:53:18;;;;;;;12.73;3.60;;;17.30;99.90;;;;;;4935946;28;211679;-72
2023/06/04 06:55:44;;;;;;;15.02;3.60;;;17.30;99.90;;;;;;5019600;28;20050;-72
2023/06/04 06:58:10;;;;;;;15.43;3.20;;;17.30;99.90;;;;;;4930552;28;209520;-71
2023/06/04 07:00:37;;;;;;;12.10;3.38;;;17.50;99.90;;;;;;5007310;28;134871;-72
2023/06/04 07:03:03;;;;;;;12.32;3.30;;;17.60;99.90;;;;;;5016825;28;233391;-71
2023/06/04 07:05:30;;;;;;;17.40;3.50;;;17.90;99.90;;;;;;4947479;28;210401;-73
2023/06/04 07:08:00;;;;;;;14.05;3.10;;;18.30;99.90;;;;;;5017802;28;20499;-72
2023/06/04 07:10:27;;;;;;;12.98;3.00;;;18.40;99.90;;;;;;4952357;28;261982;-73
2023/06/04 07:12:53;;;;;;;13.90;2.70;;;18.60;99.90;;;;;;4997576;28;20069;-72
2023/06/04 07:15:19;;;;;;;11.90;2.80;;;18.90;99.90;;;;;;4946306;28;206513;-72
2023/06/04 07:17:45;;;;;;;11.00;2.65;;;19.10;99.90;;;;;;5002996;28;20046;-72
2023/06/04 07:20:12;;;;;;;11.27;2.90;;;19.30;99.90;;;;;;4974405;28;202553;-71
2023/06/04 07:22:38;;;;;;;12.70;2.30;;;19.50;99.90;;;;;;5033472;28;20521;-72
2023/06/04 07:25:05;;;;;;;10.93;2.30;;;19.70;99.90;;;;;;4945023;28;206356;-72
2023/06/04 07:27:31;;;;;;;12.27;2.28;;;19.80;99.60;;;;;;5001208;28;20077;-72
2023/06/04 07:29:57;;;;;;;11.98;2.40;;;19.80;99.40;;;;;;4957219;28;208349;-72
2023/06/04 07:32:23;;;;;;;10.70;2.13;;;19.70;99.00;;;;;;5003335;28;20113;-72
2023/06/04 07:34:49;;;;;;;10.15;2.20;;;19.60;99.00;;;;;;4954031;28;181818;-72
2023/06/04 07:37:15;;;;;;;12.45;2.70;;;19.80;98.70;;;;;;4982143;28;20034;-72
2023/06/04 07:39:41;;;;;;;12.20;2.58;;;20.00;98.20;;;;;;4956418;28;222024;-71
2023/06/04 07:42:08;;;;;;;11.57;2.42;;;20.30;97.80;;;;;;5009203;28;20051;-72
2023/06/04 07:44:35;;;;;;;10.98;2.50;;;20.20;97.90;;;;;;4941983;28;206835;-74
2023/06/04 07:47:01;;;;;;;10.45;2.30;;;20.20;97.70;;;;;;5010460;28;20057;-72
2023/06/04 07:49:27;;;;;;;10.70;2.83;;;20.30;97.60;;;;;;4952474;28;209215;-72
2023/06/04 07:51:53;;;;;;;11.25;2.65;;;20.40;96.70;;;;;;4986891;28;20071;-72
2023/06/04 07:54:19;;;;;;;13.48;2.63;;;20.90;97.70;;;;;;4948843;28;214148;-72
2023/06/04 07:56:45;;;;;;;12.70;3.05;;;21.10;96.60;;;;;;5016566;28;20088;-72
2023/06/04 07:59:11;;;;;;;11.35;2.38;;;21.10;96.50;;;;;;4943717;28;233665;-71
2023/06/04 08:01:37;;;;;;;9.18;2.20;;;21.40;96.50;;;;;;5010136;28;20530;-72
2023/06/04 08:04:03;;;;;;;9.90;2.00;;;21.50;94.90;;;;;;4955003;28;206210;-72
2023/06/04 08:06:30;;;;;;;8.98;2.03;;;21.50;95.50;;;;;;5008259;28;20050;-72
2023/06/04 08:08:56;;;;;;;9.80;2.20;;;21.70;94.00;;;;;;4961350;28;215219;-72
2023/06/04 08:11:25;;;;;;;11.00;2.08;;;21.50;94.50;;;;;;5013401;28;20435;-71
2023/06/04 08:13:51;;;;;;;10.52;2.00;;;21.50;94.10;;;;;;4944134;28;213049;-71
2023/06/04 08:16:17;;;;;;;11.63;2.33;;;21.90;94.20;;;;;;5023696;28;20080;-73
2023/06/04 08:18:43;;;;;;;8.82;2.08;;;22.20;93.90;;;;;;4953831;28;216338;-72
2023/06/04 08:21:16;;;;;;;9.48;2.15;;;22.40;93.80;;;;;;4998725;28;20138;-72
2023/06/04 08:23:42;;;;;;;10.25;2.05;;;22.50;92.90;;;;;;4937357;28;213479;-72
2023/06/04 08:26:09;;;;;;;9.80;1.88;;;22.50;92.10;;;;;;4991173;28;20058;-73
2023/06/04 08:28:35;;;;;;;8.35;2.03;;;22.50;91.80;;;;;;4933437;28;208956;-72
2023/06/04 08:31:01;;;;;;;8.43;1.80;;;22.60;92.00;;;;;;5010670;28;20542;-72
2023/06/04 08:33:27;;;;;;;10.38;1.88;;;22.90;91.30;;;;;;4952227;28;222044;-72
2023/06/04 08:35:53;;;;;;;8.15;1.80;;;23.30;90.90;;;;;;5011596;28;20057;-72
2023/06/04 08:38:19;;;;;;;8.17;1.70;;;23.60;90.90;;;;;;4926199;28;212765;-70
2023/06/04 08:40:51;;;;;;;7.72;1.60;;;23.90;88.40;;;;;;5002537;28;20053;-72
2023/06/04 08:43:18;;;;;;;8.20;1.80;;;24.10;89.60;;;;;;4944521;28;214196;-72
2023/06/04 08:45:49;;;;;;;8.63;1.98;;;23.90;87.60;;;;;;4996338;28;20054;-72
2023/06/04 08:48:18;;;;;;;8.38;1.60;;;23.80;88.10;;;;;;4936715;28;234022;-72
2023/06/04 08:50:47;;;;;;;8.43;1.70;;;24.30;88.80;;;;;;5009738;28;20070;-73
2023/06/04 08:53:15;;;;;;;10.70;1.88;;;24.40;85.60;;;;;;4919816;28;220009;-72
2023/06/04 08:55:42;;;;;;;10.57;2.03;;;24.40;86.00;;;;;;5009072;28;20046;-72
2023/06/04 08:58:11;;;;;;;7.45;1.80;;;24.50;86.10;;;;;;4942570;28;214123;-72
2023/06/04 09:00:37;;;;;;;7.63;1.83;;;24.80;86.80;;;;;;4987288;28;220604;-72
2023/06/04 09:03:03;;;;;;;9.07;2.13;;;25.10;85.60;;;;;;4990271;28;217708;-71
2023/06/04 09:05:30;;;;;;;8.82;1.83;;;24.80;83.70;;;;;;4951680;28;208777;-71
2023/06/04 09:08:01;;;;;;;8.63;1.90;;;24.70;83.50;;;;;;4988235;28;20054;-72
2023/06/04 09:10:29;;;;;;;9.50;2.15;;;25.00;83.20;;;;;;4946811;28;213158;-70
2023/06/04 09:12:58;;;;;;;7.75;1.70;;;25.40;82.50;;;;;;5022387;28;20065;-71
2023/06/04 09:15:24;;;;;;;7.43;1.88;;;25.20;82.60;;;;;;4966075;28;207187;-70
2023/06/04 09:17:50;;;;;;;7.88;1.63;;;25.30;81.50;;;;;;4987096;28;20287;-71
2023/06/04 09:20:24;;;;;;;8.38;1.98;;;25.40;82.90;;;;;;4934066;28;221560;-71
2023/06/04 09:22:50;;;;;;;7.10;1.83;;;25.60;79.70;;;;;;5021986;28;20062;-71
2023/06/04 09:25:25;;;;;;;8.00;2.00;;;25.50;81.50;;;;;;4963876;28;216826;-71
2023/06/04 09:27:51;;;;;;;9.40;1.90;;;25.40;80.10;;;;;;4993510;28;20054;-73
2023/06/04 09:30:18;;;;;;;8.10;1.83;;;25.70;79.50;;;;;;4960786;28;212116;-72
2023/06/04 09:32:45;;;;;;;8.05;1.77;;;26.00;79.10;;;;;;5009764;28;20520;-71
2023/06/04 09:35:16;;;;;;;8.38;1.70;;;25.60;77.40;;;;;;4958960;28;207200;-71
2023/06/04 09:37:53;;;;;;;9.70;1.98;;;25.90;76.00;;;;;;4986326;28;20058;-72
2023/06/04 09:40:19;;;;;;;7.80;1.90;;;26.00;76.60;;;;;;4978661;28;217118;-70
2023/06/04 09:42:49;;;;;;;7.68;1.63;;;25.90;77.00;;;;;;5005567;28;20054;-71
2023/06/04 09:45:30;;;;;;;6.43;1.50;;;25.80;76.90;;;;;;4960993;28;283971;-71
2023/06/04 09:47:57;;;;;;;7.10;1.73;;;26.30;75.90;;;;;;5021780;28;20054;-71
2023/06/04 09:50:32;;;;;;;6.70;1.65;;;26.60;75.20;;;;;;4981440;28;209222;-71
2023/06/04 09:52:58;;;;;;;7.43;1.55;;;26.80;73.90;;;;;;5006672;28;20054;-74
2023/06/04 09:55:25;;;;;;;8.23;1.70;;;26.70;75.30;;;;;;4924242;28;204763;-74
2023/06/04 09:57:52;;;;;;;8.00;1.58;;;27.20;74.40;;;;;;4980781;28;20055;-73
2023/06/04 10:00:23;;;;;;;8.63;1.67;;;27.00;75.60;;;;;;4941708;28;255406;-74
2023/06/04 10:02:55;;;;;;;7.65;1.63;;;27.00;74.60;;;;;;4986653;28;20704;-74
2023/06/04 10:05:22;;;;;;;8.73;1.70;;;27.00;74.40;;;;;;4940865;28;209377;-74
2023/06/04 10:07:51;;;;;;;8.50;1.70;;;27.20;74.30;;;;;;4985730;28;20054;-73
2023/06/04 10:10:25;;;;;;;8.82;1.70;;;27.00;75.70;;;;;;4969212;28;218747;-74
2023/06/04 10:13:03;;;;;;;8.27;1.70;;;27.40;75.00;;;;;;4960092;28;20050;-75
2023/06/04 10:15:32;;;;;;;7.93;1.52;;;28.20;73.10;;;;;;4937023;28;194414;-71
2023/06/04 10:17:58;;;;;;;8.35;1.55;;;27.90;71.20;;;;;;4986219;28;20528;-74
2023/06/04 10:20:25;;;;;;;6.88;1.60;;;27.50;71.70;;;;;;4945053;28;152207;-73
2023/06/04 10:22:51;;;;;;;7.15;1.50;;;27.50;71.30;;;;;;4986005;28;20058;-73
2023/06/04 10:25:19;;;;;;;8.07;1.52;;;27.90;71.50;;;;;;4957601;28;213166;-73
2023/06/04 10:27:46;;;;;;;7.35;1.80;;;28.30;70.90;;;;;;5014470;28;20050;-72
2023/06/04 10:30:13;;;;;;;7.38;1.50;;;27.90;70.40;;;;;;4968156;28;132009;-73
2023/06/04 10:32:40;;;;;;;8.30;1.63;;;28.10;70.90;;;;;;5015715;28;20054;-73
2023/06/04 10:35:07;;;;;;;7.18;1.60;;;28.10;69.90;;;;;;4979400;28;210931;-73
2023/06/04 10:37:34;;;;;;;7.00;1.50;;;27.90;69.00;;;;;;5001820;28;20666;-72
2023/06/04 10:40:00;;;;;;;6.22;1.42;;;27.40;69.10;;;;;;4946723;28;214564;-73
2023/06/04 10:42:37;;;;;;;8.35;1.52;;;27.80;67.90;;;;;;4980597;28;20516;-74
2023/06/04 10:45:03;;;;;;;7.63;1.63;;;28.10;68.50;;;;;;4962868;28;215767;-72
2023/06/04 10:47:30;;;;;;;5.82;1.25;;;27.70;68.40;;;;;;4964036;28;20057;-73
2023/06/04 10:50:07;;;;;;;8.32;1.55;;;27.60;67.60;;;;;;4941703;28;215351;-73
2023/06/04 10:52:34;;;;;;;9.18;1.70;;;27.80;66.20;;;;;;4985498;28;20046;-74
2023/06/04 10:55:08;;;;;;;7.47;1.58;;;27.80;67.50;;;;;;4958830;28;232595;-74
2023/06/04 10:57:35;;;;;;;6.47;1.40;;;27.60;66.70;;;;;;4982127;28;20065;-74
2023/06/04 11:00:05;;;;;;;7.25;1.50;;;27.30;68.10;;;;;;4935825;28;279217;-73
2023/06/04 11:02:31;;;;;;;8.75;1.50;;;27.50;68.00;;;;;;4979306;28;20050;-71
2023/06/04 11:05:03;;;;;;;5.95;1.45;;;27.40;67.50;;;;;;4962166;28;224019;-73
2023/06/04 11:07:29;;;;;;;7.28;1.52;;;26.90;64.90;;;;;;4968054;28;20057;-73
2023/06/04 11:09:55;;;;;;;5.75;1.50;;;27.10;66.50;;;;;;4930477;28;208919;-73
2023/06/04 11:12:22;;;;;;;6.65;1.30;;;27.30;66.40;;;;;;4993202;28;20061;-75
2023/06/04 11:14:58;;;;;;;7.40;1.52;;;27.30;64.80;;;;;;4971220;28;203784;-74
2023/06/04 11:17:24;;;;;;;7.00;1.40;;;27.40;65.70;;;;;;4983204;28;20054;-73
2023/06/04 11:19:55;;;;;;;8.73;1.50;;;27.70;65.20;;;;;;4968971;28;216377;-74
2023/06/04 11:22:22;;;;;;;7.22;1.50;;;27.50;65.40;;;;;;4998991;28;20043;-73
2023/06/04 11:24:48;;;;;;;7.90;1.77;;;27.30;64.00;;;;;;4949019;28;206565;-74
2023/06/04 11:27:14;;;;;;;5.53;1.27;;;27.30;65.60;;;;;;4989532;28;20059;-73
2023/06/04 11:29:41;;;;;;;6.72;1.60;;;26.80;64.20;;;;;;4919999;28;236013;-75
2023/06/04 11:32:07;;;;;;;6.35;1.40;;;27.10;65.10;;;;;;4969967;28;20054;-74
2023/06/04 11:34:33;;;;;;;7.45;1.70;;;27.50;65.30;;;;;;4937197;28;209962;-71
2023/06/04 11:37:09;;;;;;;6.88;1.50;;;27.90;65.00;;;;;;4998087;28;20054;-73
2023/06/04 11:39:38;;;;;;;6.32;1.50;;;27.90;64.20;;;;;;4951038;28;232427;-73
2023/06/04 11:42:07;;;;;;;8.30;1.65;;;27.40;63.30;;;;;;4967680;28;20411;-72
2023/06/04 11:44:34;;;;;;;8.30;1.60;;;27.60;64.70;;;;;;4935776;28;239956;-75
2023/06/04 11:47:00;;;;;;;7.45;1.52;;;27.80;65.10;;;;;;4977781;28;20057;-75
2023/06/04 11:49:28;;;;;;;5.97;1.50;;;27.90;64.50;;;;;;4953904;28;217432;-75
2023/06/04 11:51:54;;;;;;;6.45;1.55;;;27.90;64.90;;;;;;4984199;28;20038;-75
2023/06/04 11:54:22;;;;;;;7.82;1.60;;;27.30;64.30;;;;;;4931620;28;209232;-76
2023/06/04 11:56:52;;;;;;;7.40;1.70;;;27.20;63.90;;;;;;4984984;28;20050;-75
2023/06/04 11:59:18;;;;;;;9.27;1.73;;;27.60;63.40;;;;;;4933824;28;209072;-78
2023/06/04 12:01:46;;;;;;;7.93;1.50;;;28.10;63.50;;;;;;4993901;28;20050;-74
2023/06/04 12:04:16;;;;;;;8.18;1.70;;;28.60;64.70;;;;;;4942066;28;219480;-77
2023/06/04 12:06:53;;;;;;;7.32;1.50;;;28.60;64.30;;;;;;5011555;28;20050;-73
2023/06/04 12:09:27;;;;;;;7.30;1.50;;;28.10;61.80;;;;;;4952503;28;251628;-75
2023/06/04 12:12:00;;;;;;;6.15;1.40;;;27.90;63.50;;;;;;5010112;28;20049;-75
2023/06/04 12:14:26;;;;;;;6.63;1.58;;;28.30;64.70;;;;;;4958774;28;209532;-78
2023/06/04 12:17:06;;;;;;;7.80;1.70;;;28.80;64.90;;;;;;5002058;28;20053;-78
2023/06/04 12:19:33;;;;;;;;;;;28.70;63.80;;;;;;4946619;28;206953;-74
2023/06/04 12:22:04;;;;;;;7.68;1.70;;;27.80;63.30;;;;;;5000486;28;19956;-75
2023/06/04 12:24:45;;;;;;;6.55;1.55;;;28.00;63.10;;;;;;4951504;28;206614;-73
2023/06/04 12:27:11;;;;;;;6.43;1.50;;;28.00;62.30;;;;;;4992088;28;20050;-75
2023/06/04 12:29:37;;;;;;;7.53;1.80;;;27.80;62.70;;;;;;4952196;28;222538;-75
2023/06/04 12:32:08;;;;;;;8.38;1.60;;;27.40;62.50;;;;;;4987594;28;20387;-74
2023/06/04 12:34:40;;;;;;;8.05;1.50;;;27.00;63.30;;;;;;4944329;28;215782;-76
2023/06/04 12:37:07;;;;;;;6.50;1.48;;;27.20;64.30;;;;;;4989619;28;20058;-75
2023/06/04 12:39:36;;;;;;;6.40;1.30;;;27.20;63.00;;;;;;4960018;28;221794;-76